createdAt,value
2019-04-16T00:00:02.597Z,5.07
2019-04-16T00:01:19.365Z,5.01
2019-04-16T00:02:29.303Z,5
2019-04-16T00:03:38.742Z,5
2019-04-16T00:04:48.428Z,5.05
2019-04-16T00:06:04.529Z,5.01
2019-04-16T00:07:13.972Z,4.87
2019-04-16T00:08:32.810Z,4.84
2019-04-16T00:09:42.506Z,4.84
2019-04-16T00:10:52.229Z,4.83
2019-04-16T00:12:02.208Z,4.89
2019-04-16T00:13:12.171Z,4.86
2019-04-16T00:14:22.129Z,4.92
2019-04-16T00:15:31.821Z,4.79
2019-04-16T00:16:49.417Z,4.9
2019-04-16T00:17:59.109Z,4.67
2019-04-16T00:19:11.266Z,4.7
2019-04-16T00:20:21.219Z,4.75
2019-04-16T00:21:30.926Z,4.66
2019-04-16T00:22:40.631Z,4.66
2019-04-16T00:23:51.658Z,4.63
2019-04-16T00:25:01.556Z,4.5
2019-04-16T00:26:11.641Z,4.56
2019-04-16T00:27:21.590Z,4.53
2019-04-16T00:28:36.257Z,4.57
2019-04-16T00:29:46.209Z,4.49
2019-04-16T00:30:55.902Z,4.52
2019-04-16T00:32:10.923Z,4.4
2019-04-16T00:33:20.878Z,4.4
2019-04-16T00:34:30.567Z,4.4
2019-04-16T00:35:40.268Z,4.46
2019-04-16T00:36:54.196Z,4.36
2019-04-16T00:38:04.332Z,4.28
2019-04-16T00:39:14.267Z,4.36
2019-04-16T00:40:26.337Z,4.38
2019-04-16T00:41:36.553Z,4.34
2019-04-16T00:42:46.519Z,4.39
2019-04-16T00:43:56.485Z,4.27
2019-04-16T00:45:06.532Z,4.24
2019-04-16T00:46:17.065Z,4.25
2019-04-16T00:47:26.757Z,4.18
2019-04-16T00:48:36.199Z,4.14
2019-04-16T00:49:46.164Z,4.18
2019-04-16T00:50:56.123Z,4.03
2019-04-16T00:52:10.747Z,4
2019-04-16T00:53:20.425Z,4.14
2019-04-16T00:54:30.326Z,4.03
2019-04-16T00:55:42.273Z,3.99
2019-04-16T00:56:54.840Z,3.94
2019-04-16T00:58:04.863Z,3.99
2019-04-16T00:59:14.822Z,3.86
2019-04-16T01:00:32.754Z,3.94
2019-04-16T01:01:42.451Z,3.95
2019-04-16T01:02:52.403Z,3.89
2019-04-16T01:04:02.105Z,3.82
2019-04-16T01:05:12.842Z,3.89
2019-04-16T01:06:22.789Z,3.92
2019-04-16T01:07:32.256Z,3.85
2019-04-16T01:08:56.402Z,3.85
2019-04-16T01:10:06.578Z,3.82
2019-04-16T01:11:16.742Z,3.84
2019-04-16T01:12:26.730Z,3.89
2019-04-16T01:13:36.431Z,3.91
2019-04-16T01:14:46.386Z,3.86
2019-04-16T01:15:56.085Z,3.84
2019-04-16T01:17:10.611Z,3.82
2019-04-16T01:18:20.568Z,3.71
2019-04-16T01:19:30.503Z,3.71
2019-04-16T01:20:45.369Z,3.68
2019-04-16T01:21:55.317Z,3.68
2019-04-16T01:23:05.534Z,3.71
2019-04-16T01:24:17.465Z,3.64
2019-04-16T01:25:29.629Z,3.7
2019-04-16T01:26:39.337Z,3.7
2019-04-16T01:27:49.300Z,3.73
2019-04-16T01:29:02.426Z,3.66
2019-04-16T01:30:12.933Z,3.66
2019-04-16T01:31:22.614Z,3.59
2019-04-16T01:32:32.305Z,3.68
2019-04-16T01:33:43.371Z,3.53
2019-04-16T01:34:56.137Z,3.49
2019-04-16T01:36:06.272Z,3.52
2019-04-16T01:37:15.944Z,3.49
2019-04-16T01:38:33.079Z,3.5
2019-04-16T01:39:47.333Z,3.56
2019-04-16T01:40:56.988Z,3.46
2019-04-16T01:42:06.677Z,3.45
2019-04-16T01:43:16.632Z,3.45
2019-04-16T01:44:33.279Z,3.46
2019-04-16T01:45:42.967Z,3.33
2019-04-16T01:46:52.685Z,3.29
2019-04-16T01:48:06.631Z,3.33
2019-04-16T01:49:17.237Z,3.29
2019-04-16T01:50:27.192Z,3.27
2019-04-16T01:51:40.176Z,3.31
2019-04-16T01:52:55.388Z,3.21
2019-04-16T01:54:05.541Z,3.21
2019-04-16T01:55:15.480Z,3.27
2019-04-16T01:56:30.462Z,3.16
2019-04-16T01:57:40.412Z,3.21
2019-04-16T01:58:50.099Z,3.26
2019-04-16T01:59:59.796Z,3.21
2019-04-16T02:01:16.238Z,3.15
2019-04-16T02:02:25.456Z,3.12
2019-04-16T02:03:35.151Z,3.16
2019-04-16T02:04:45.103Z,3.12
2019-04-16T02:06:00.222Z,3.11
2019-04-16T02:07:10.174Z,3.05
2019-04-16T02:08:20.122Z,3.09
2019-04-16T02:09:34.042Z,3.01
2019-04-16T02:10:43.844Z,3.05
2019-04-16T02:11:53.542Z,3.06
2019-04-16T02:13:03.229Z,2.98
2019-04-16T02:14:14.482Z,2.91
2019-04-16T02:15:29.804Z,2.9
2019-04-16T02:16:39.728Z,2.97
2019-04-16T02:17:49.174Z,2.94
2019-04-16T02:19:06.540Z,3
2019-04-16T02:20:16.237Z,2.93
2019-04-16T02:21:25.929Z,2.93
2019-04-16T02:22:36.100Z,2.95
2019-04-16T02:23:52.312Z,3.01
2019-04-16T02:25:02.069Z,2.93
2019-04-16T02:26:12.031Z,3
2019-04-16T02:27:23.416Z,2.93
2019-04-16T02:28:35.692Z,2.88
2019-04-16T02:29:45.387Z,2.87
2019-04-16T02:30:55.357Z,2.8
2019-04-16T02:32:06.055Z,2.87
2019-04-16T02:33:15.771Z,2.82
2019-04-16T02:34:25.752Z,2.77
2019-04-16T02:35:35.447Z,2.82
2019-04-16T02:36:45.391Z,2.79
2019-04-16T02:37:55.125Z,2.76
2019-04-16T02:39:05.005Z,2.7
2019-04-16T02:40:21.733Z,2.79
2019-04-16T02:41:31.686Z,2.76
2019-04-16T02:42:41.388Z,2.72
2019-04-16T02:43:51.361Z,2.68
2019-04-16T02:45:01.320Z,2.64
2019-04-16T02:46:11.528Z,2.7
2019-04-16T02:47:21.243Z,2.59
2019-04-16T02:48:31.207Z,2.59
2019-04-16T02:49:41.165Z,2.59
2019-04-16T02:50:50.901Z,2.5
2019-04-16T02:52:00.771Z,2.51
2019-04-16T02:53:11.055Z,2.44
2019-04-16T02:54:21.037Z,2.44
2019-04-16T02:55:42.497Z,2.43
2019-04-16T02:56:56.640Z,2.43
2019-04-16T02:58:07.555Z,2.41
2019-04-16T02:59:18.249Z,2.44
2019-04-16T03:00:27.956Z,2.4
2019-04-16T03:01:37.656Z,2.4
2019-04-16T03:02:47.644Z,2.32
2019-04-16T03:04:01.633Z,2.33
2019-04-16T03:05:11.590Z,2.34
2019-04-16T03:06:21.725Z,2.3
2019-04-16T03:07:32.712Z,2.36
2019-04-16T03:08:43.091Z,2.41
2019-04-16T03:10:05.278Z,2.32
2019-04-16T03:11:22.488Z,2.33
2019-04-16T03:12:32.416Z,2.3
2019-04-16T03:13:42.365Z,2.3
2019-04-16T03:14:52.298Z,2.33
2019-04-16T03:16:10.142Z,2.26
2019-04-16T03:17:20.129Z,2.26
2019-04-16T03:18:30.160Z,2.3
2019-04-16T03:19:43.523Z,2.28
2019-04-16T03:21:01.250Z,2.28
2019-04-16T03:22:11.412Z,2.22
2019-04-16T03:23:21.348Z,2.26
2019-04-16T03:24:31.373Z,2.12
2019-04-16T03:25:46.473Z,2.14
2019-04-16T03:26:56.191Z,2.12
2019-04-16T03:28:05.905Z,2.16
2019-04-16T03:29:15.916Z,2.07
2019-04-16T03:30:25.384Z,2.01
2019-04-16T03:31:35.384Z,2.01
2019-04-16T03:32:44.904Z,2.04
2019-04-16T03:33:55.899Z,2.12
2019-04-16T03:35:06.316Z,2
2019-04-16T03:36:15.856Z,2.04
2019-04-16T03:37:25.795Z,2.03
2019-04-16T03:38:44.574Z,2.04
2019-04-16T03:39:54.511Z,2.08
2019-04-16T03:41:04.204Z,2.01
2019-04-16T03:42:14.386Z,1.98
2019-04-16T03:43:24.345Z,2
2019-04-16T03:44:42.134Z,1.89
2019-04-16T03:45:51.833Z,1.92
2019-04-16T03:47:01.531Z,1.98
2019-04-16T03:48:11.432Z,1.93
2019-04-16T03:49:21.147Z,1.88
2019-04-16T03:50:36.832Z,1.82
2019-04-16T03:51:46.792Z,1.82
2019-04-16T03:52:56.755Z,1.84
2019-04-16T03:54:09.682Z,1.75
2019-04-16T03:55:24.905Z,1.81
2019-04-16T03:56:35.800Z,1.75
2019-04-16T03:57:45.756Z,1.78
2019-04-16T03:58:55.442Z,1.76
2019-04-16T04:00:11.006Z,1.7
2019-04-16T04:01:20.998Z,1.74
2019-04-16T04:02:30.945Z,1.66
2019-04-16T04:03:40.888Z,1.64
2019-04-16T04:04:50.830Z,1.6
2019-04-16T04:06:09.503Z,1.63
2019-04-16T04:07:19.476Z,1.6
2019-04-16T04:08:29.180Z,1.57
2019-04-16T04:09:38.862Z,1.56
2019-04-16T04:10:48.584Z,1.53
2019-04-16T04:11:58.038Z,1.6
2019-04-16T04:13:09.460Z,1.58
2019-04-16T04:14:28.207Z,1.52
2019-04-16T04:15:38.158Z,1.5
2019-04-16T04:16:48.110Z,1.57
2019-04-16T04:17:57.640Z,1.53
2019-04-16T04:19:07.366Z,1.52
2019-04-16T04:20:23.648Z,1.56
2019-04-16T04:21:33.091Z,1.58
2019-04-16T04:22:42.793Z,1.49
2019-04-16T04:23:52.502Z,1.5
2019-04-16T04:25:09.866Z,1.5
2019-04-16T04:26:19.777Z,1.48
2019-04-16T04:27:29.470Z,1.49
2019-04-16T04:28:39.208Z,1.45
2019-04-16T04:29:53.600Z,1.49
2019-04-16T04:31:06.877Z,1.46
2019-04-16T04:32:16.839Z,1.49
2019-04-16T04:33:27.062Z,1.42
2019-04-16T04:34:36.849Z,1.42
2019-04-16T04:35:46.657Z,1.48
2019-04-16T04:37:03.930Z,1.46
2019-04-16T04:38:13.758Z,1.43
2019-04-16T04:39:23.511Z,1.46
2019-04-16T04:42:45.755Z,1.45
2019-04-16T04:43:55.521Z,1.42
2019-04-16T04:45:14.425Z,1.45
2019-04-16T04:46:23.878Z,1.49
2019-04-16T04:47:33.812Z,1.46
2019-04-16T04:48:43.753Z,1.46
2019-04-16T04:49:53.446Z,1.49
2019-04-16T04:51:11.789Z,1.46
2019-04-16T04:52:21.843Z,1.53
2019-04-16T04:53:34.688Z,1.57
2019-04-16T04:54:44.380Z,1.61
2019-04-16T04:55:59.917Z,1.6
2019-04-16T04:57:09.880Z,1.56
2019-04-16T04:58:19.782Z,1.58
2019-04-16T04:59:29.743Z,1.61
2019-04-16T05:00:45.862Z,1.63
2019-04-16T05:01:55.832Z,1.61
2019-04-16T05:03:05.821Z,1.63
2019-04-16T05:04:24.217Z,1.68
2019-04-16T05:05:33.933Z,1.74
2019-04-16T05:06:43.646Z,1.7
2019-04-16T05:07:53.368Z,1.66
2019-04-16T05:09:07.467Z,1.75
2019-04-16T05:10:16.675Z,1.74
2019-04-16T05:11:26.857Z,1.71
2019-04-16T05:12:36.565Z,1.75
2019-04-16T05:13:46.520Z,1.79
2019-04-16T05:15:06.205Z,1.81
2019-04-16T05:16:15.963Z,1.82
2019-04-16T05:17:25.922Z,1.79
2019-04-16T05:18:38.266Z,1.92
2019-04-16T05:19:51.283Z,1.95
2019-04-16T05:21:01.249Z,2
2019-04-16T05:22:11.280Z,1.93
2019-04-16T05:23:29.806Z,2.01
2019-04-16T05:24:42.944Z,2.03
2019-04-16T05:25:52.887Z,1.88
2019-04-16T05:27:05.395Z,2.01
2019-04-16T05:28:18.353Z,2.07
2019-04-16T05:29:28.316Z,2.05
2019-04-16T05:30:38.274Z,2.12
2019-04-16T05:31:48.217Z,2.21
2019-04-16T05:32:59.593Z,2.18
2019-04-16T05:34:13.253Z,2.22
2019-04-16T05:35:25.478Z,2.32
2019-04-16T05:36:35.165Z,2.33
2019-04-16T05:37:55.831Z,2.32
2019-04-16T05:39:08.529Z,2.37
2019-04-16T05:40:18.573Z,2.4
2019-04-16T05:41:28.351Z,2.54
2019-04-16T05:42:38.047Z,2.44
2019-04-16T05:43:47.992Z,2.59
2019-04-16T05:44:57.940Z,2.59
2019-04-16T05:46:14.219Z,2.57
2019-04-16T05:47:23.925Z,2.64
2019-04-16T05:48:33.864Z,2.73
2019-04-16T05:49:43.805Z,2.65
2019-04-16T05:50:53.773Z,2.68
2019-04-16T05:52:08.527Z,2.73
2019-04-16T05:53:18.806Z,2.72
2019-04-16T05:54:28.522Z,2.88
2019-04-16T05:55:38.207Z,2.97
2019-04-16T05:56:48.173Z,2.93
2019-04-16T05:58:03.596Z,3.01
2019-04-16T05:59:13.555Z,3.05
2019-04-16T06:00:23.501Z,3.06
2019-04-16T06:01:33.473Z,3.11
2019-04-16T06:02:42.928Z,3.18
2019-04-16T06:03:58.867Z,3.13
2019-04-16T06:05:08.319Z,3.21
2019-04-16T06:06:18.068Z,3.34
2019-04-16T06:07:28.193Z,3.33
2019-04-16T06:08:46.422Z,3.48
2019-04-16T06:09:56.393Z,3.52
2019-04-16T06:11:06.321Z,3.52
2019-04-16T06:12:16.517Z,3.45
2019-04-16T06:13:26.221Z,3.63
2019-04-16T06:14:35.923Z,3.64
2019-04-16T06:15:45.659Z,3.68
2019-04-16T06:17:02.301Z,3.85
2019-04-16T06:18:11.999Z,3.84
2019-04-16T06:19:25.355Z,3.78
2019-04-16T06:20:35.141Z,3.82
2019-04-16T06:21:45.096Z,3.85
2019-04-16T06:22:55.039Z,3.94
2019-04-16T06:24:09.069Z,4.06
2019-04-16T06:25:19.613Z,4
2019-04-16T06:26:29.320Z,4.09
2019-04-16T06:27:39.036Z,4.13
2019-04-16T06:28:48.981Z,4.18
2019-04-16T06:30:06.877Z,4.25
2019-04-16T06:31:17.106Z,4.24
2019-04-16T06:32:30.511Z,4.4
2019-04-16T06:33:40.509Z,4.39
2019-04-16T06:34:50.463Z,4.34
2019-04-16T06:36:00.403Z,4.42
2019-04-16T06:37:10.377Z,4.48
2019-04-16T06:38:26.187Z,4.6
2019-04-16T06:39:35.627Z,4.56
2019-04-16T06:40:45.339Z,4.53
2019-04-16T06:41:57.615Z,4.68
2019-04-16T06:43:07.727Z,4.67
2019-04-16T06:44:17.667Z,4.66
2019-04-16T06:45:27.808Z,4.75
2019-04-16T06:46:44.720Z,4.71
2019-04-16T06:47:54.659Z,4.74
2019-04-16T06:49:04.621Z,4.84
2019-04-16T06:50:14.579Z,4.86
2019-04-16T06:51:49.323Z,5.01
2019-04-16T06:52:59.031Z,5
2019-04-16T06:54:08.731Z,5.12
2019-04-16T06:55:18.770Z,5.28
2019-04-16T06:56:28.958Z,5.36
2019-04-16T06:57:40.292Z,5.28
2019-04-16T06:58:59.901Z,5.34
2019-04-16T07:00:12.052Z,5.31
2019-04-16T07:01:25.084Z,5.44
2019-04-16T07:02:37.324Z,5.46
2019-04-16T07:04:09.256Z,5.59
2019-04-16T07:05:19.195Z,5.67
2019-04-16T07:06:28.892Z,5.67
2019-04-16T07:07:48.510Z,5.77
2019-04-16T07:08:58.489Z,5.65
2019-04-16T07:10:09.059Z,5.8
2019-04-16T07:11:19.229Z,5.74
2019-04-16T07:12:29.353Z,5.72
2019-04-16T07:13:47.009Z,5.9
2019-04-16T07:14:56.734Z,5.9
2019-04-16T07:16:06.725Z,5.99
2019-04-16T07:17:20.326Z,6.1
2019-04-16T07:18:30.296Z,5.99
2019-04-16T07:19:47.543Z,6.09
2019-04-16T07:20:57.526Z,6.15
2019-04-16T07:22:07.232Z,6.19
2019-04-16T07:23:17.299Z,6.26
2019-04-16T07:24:40.058Z,6.39
2019-04-16T07:25:51.657Z,6.38
2019-04-16T07:27:01.971Z,6.31
2019-04-16T07:28:11.962Z,6.32
2019-04-16T07:29:22.438Z,6.44
2019-04-16T07:30:41.683Z,6.44
2019-04-16T07:31:55.465Z,6.46
2019-04-16T07:33:06.024Z,6.57
2019-04-16T07:34:15.978Z,6.53
2019-04-16T07:35:27.157Z,6.6
2019-04-16T07:36:37.406Z,6.74
2019-04-16T07:37:46.847Z,6.85
2019-04-16T07:38:56.784Z,6.86
2019-04-16T07:40:11.521Z,6.87
2019-04-16T07:41:22.123Z,7
2019-04-16T07:42:31.878Z,7.01
2019-04-16T07:43:57.280Z,7.13
2019-04-16T07:45:17.896Z,7.03
2019-04-16T07:46:27.864Z,7.14
2019-04-16T07:47:37.555Z,7.18
2019-04-16T07:48:47.248Z,7.19
2019-04-16T07:50:05.561Z,7.33
2019-04-16T07:51:15.005Z,7.37
2019-04-16T07:52:24.961Z,7.41
2019-04-16T07:53:34.905Z,7.5
2019-04-16T07:54:45.069Z,7.55
2019-04-16T07:55:54.766Z,7.55
2019-04-16T07:57:04.204Z,7.58
2019-04-16T07:58:14.312Z,7.62
2019-04-16T07:59:24.019Z,7.72
2019-04-16T08:00:42.844Z,7.77
2019-04-16T08:01:53.662Z,7.88
2019-04-16T08:03:03.352Z,7.81
2019-04-16T08:04:13.075Z,7.84
2019-04-16T08:05:44.984Z,8.02
2019-04-16T08:06:55.117Z,8.08
2019-04-16T08:08:04.856Z,8.16
2019-04-16T08:09:14.576Z,8.28
2019-04-16T08:10:24.545Z,8.35
2019-04-16T08:11:34.497Z,8.38
2019-04-16T08:12:47.015Z,8.52
2019-04-16T08:13:56.966Z,8.56
2019-04-16T08:15:19.378Z,8.72
2019-04-16T08:16:29.365Z,8.77
2019-04-16T08:17:52.545Z,8.75
2019-04-16T08:19:02.517Z,8.86
2019-04-16T08:20:13.030Z,8.92
2019-04-16T08:21:27.848Z,9.09
2019-04-16T08:22:39.874Z,9.03
2019-04-16T08:23:58.207Z,9.16
2019-04-16T08:25:09.245Z,9.16
2019-04-16T08:26:18.470Z,9.21
2019-04-16T08:27:28.197Z,9.36
2019-04-16T08:28:38.180Z,9.4
2019-04-16T08:29:48.144Z,9.58
2019-04-16T08:30:58.015Z,9.64
2019-04-16T08:32:08.363Z,9.74
2019-04-16T08:33:28.168Z,9.85
2019-04-16T08:34:38.490Z,9.99
2019-04-16T08:35:48.454Z,10.09
2019-04-16T08:36:58.190Z,10.13
2019-04-16T08:38:08.196Z,10.25
2019-04-16T08:39:17.903Z,10.39
2019-04-16T08:40:27.629Z,10.33
2019-04-16T08:41:37.610Z,10.34
2019-04-16T08:42:49.629Z,10.39
2019-04-16T08:44:12.364Z,10.49
2019-04-16T08:45:25.390Z,10.67
2019-04-16T08:46:35.102Z,10.9
2019-04-16T08:47:50.698Z,11.25
2019-04-16T08:49:00.471Z,11.68
2019-04-16T08:50:11.991Z,11.97
2019-04-16T08:51:39.532Z,12.51
2019-04-16T08:52:49.502Z,12.78
2019-04-16T08:53:59.461Z,13.12
2019-04-16T08:55:09.404Z,13.42
2019-04-16T08:56:19.621Z,13.89
2019-04-16T08:57:34.334Z,14.3
2019-04-16T08:58:44.307Z,14.41
2019-04-16T08:59:54.028Z,14.85
2019-04-16T09:01:03.973Z,15.17
2019-04-16T09:02:13.676Z,15.19
2019-04-16T09:03:26.754Z,15.45
2019-04-16T09:04:40.153Z,15.8
2019-04-16T09:05:50.122Z,16.24
2019-04-16T09:07:19.459Z,16.32
2019-04-16T09:08:29.786Z,16.55
2019-04-16T09:09:39.517Z,16.83
2019-04-16T09:10:49.690Z,16.79
2019-04-16T09:11:59.702Z,16.97
2019-04-16T09:13:17.722Z,17.23
2019-04-16T09:14:30.411Z,17.63
2019-04-16T09:15:40.388Z,18
2019-04-16T09:16:49.848Z,18.11
2019-04-16T09:17:59.565Z,18.15
2019-04-16T09:19:09.643Z,18.39
2019-04-16T09:20:22.748Z,18.49
2019-04-16T09:21:33.123Z,18.81
2019-04-16T09:22:58.456Z,18.83
2019-04-16T09:24:14.232Z,18.85
2019-04-16T09:25:23.960Z,18.88
2019-04-16T09:26:33.932Z,18.94
2019-04-16T09:27:43.391Z,18.98
2019-04-16T09:28:53.374Z,18.97
2019-04-16T09:30:16.837Z,19.08
2019-04-16T09:31:27.980Z,19.29
2019-04-16T09:32:37.968Z,19.22
2019-04-16T09:33:47.442Z,19.29
2019-04-16T09:35:18.282Z,19.37
2019-04-16T09:36:28.650Z,19.62
2019-04-16T09:37:40.637Z,19.62
2019-04-16T09:38:51.002Z,19.71
2019-04-16T09:40:00.770Z,19.78
2019-04-16T09:41:24.323Z,19.7
2019-04-16T09:42:34.041Z,19.64
2019-04-16T09:43:45.224Z,19.81
2019-04-16T09:44:55.282Z,19.84
2019-04-16T09:46:48.717Z,19.93
2019-04-16T09:48:07.481Z,20.04
2019-04-16T09:49:17.383Z,20.22
2019-04-16T09:50:27.158Z,20.46
2019-04-16T09:51:37.140Z,20.52
2019-04-16T09:52:47.098Z,20.64
2019-04-16T09:54:00.219Z,20.64
2019-04-16T09:55:10.192Z,20.67
2019-04-16T09:56:31.875Z,20.73
2019-04-16T09:57:41.830Z,21.07
2019-04-16T09:58:51.811Z,21.05
2019-04-16T10:00:01.534Z,21.13
2019-04-16T10:01:13.768Z,20.92
2019-04-16T10:02:23.928Z,21.15
2019-04-16T10:03:33.618Z,21.14
2019-04-16T10:04:43.590Z,21.28
2019-04-16T10:05:53.075Z,21.35
2019-04-16T10:07:03.070Z,21.53
2019-04-16T10:08:17.378Z,21.89
2019-04-16T10:09:27.582Z,21.8
2019-04-16T10:10:37.582Z,21.66
2019-04-16T10:11:47.410Z,21.66
2019-04-16T10:12:57.428Z,21.72
2019-04-16T10:14:07.445Z,21.77
2019-04-16T10:15:17.461Z,21.66
2019-04-16T10:16:27.466Z,21.13
2019-04-16T10:17:37.558Z,21.07
2019-04-16T10:18:47.353Z,21.23
2019-04-16T10:19:57.139Z,21.23
2019-04-16T10:21:07.162Z,20.98
2019-04-16T10:22:16.910Z,21.25
2019-04-16T10:23:26.971Z,21.56
2019-04-16T10:24:36.741Z,21.54
2019-04-16T10:25:46.478Z,21.48
2019-04-16T10:26:59.893Z,21.6
2019-04-16T10:28:12.113Z,21.59
2019-04-16T10:29:21.990Z,21.78
2019-04-16T10:30:34.784Z,22.06
2019-04-16T10:31:44.350Z,22.36
2019-04-16T10:32:54.144Z,22.36
2019-04-16T10:34:03.657Z,22.49
2019-04-16T10:35:13.662Z,22.4
2019-04-16T10:36:23.506Z,22.12
2019-04-16T10:37:33.780Z,22.22
2019-04-16T10:38:43.822Z,22.36
2019-04-16T10:39:53.915Z,22.61
2019-04-16T10:41:03.661Z,22.61
2019-04-16T10:42:13.714Z,22.71
2019-04-16T10:43:23.787Z,22.78
2019-04-16T10:44:33.869Z,22.83
2019-04-16T10:45:43.932Z,22.78
2019-04-16T10:46:53.928Z,22.73
2019-04-16T10:48:04.079Z,22.86
2019-04-16T10:49:13.647Z,22.96
2019-04-16T10:50:23.844Z,23.33
2019-04-16T10:51:33.818Z,23.4
2019-04-16T10:52:43.833Z,23.18
2019-04-16T10:53:56.523Z,23.04
2019-04-16T10:55:09.283Z,23.06
2019-04-16T10:56:26.812Z,23.23
2019-04-16T10:57:38.450Z,23.45
2019-04-16T10:58:48.785Z,23.23
2019-04-16T10:59:58.888Z,23.01
2019-04-16T11:01:09.417Z,22.96
2019-04-16T11:02:18.909Z,22.98
2019-04-16T11:03:34.368Z,23.04
2019-04-16T11:04:47.949Z,23.18
2019-04-16T11:06:01.731Z,23.28
2019-04-16T11:07:11.108Z,23.34
2019-04-16T11:08:21.232Z,23.44
2019-04-16T11:09:31.005Z,23.55
2019-04-16T11:10:41.041Z,23.66
2019-04-16T11:11:51.044Z,23.76
2019-04-16T11:13:00.825Z,23.29
2019-04-16T11:14:10.893Z,23.23
2019-04-16T11:15:21.022Z,22.93
2019-04-16T11:16:30.824Z,22.89
2019-04-16T11:17:43.733Z,23.08
2019-04-16T11:18:57.385Z,23.1
2019-04-16T11:20:07.450Z,23.34
2019-04-16T11:21:17.434Z,23.34
2019-04-16T11:22:27.174Z,23.26
2019-04-16T11:23:37.262Z,23.32
2019-04-16T11:24:47.276Z,23.48
2019-04-16T11:25:57.443Z,23.48
2019-04-16T11:27:08.147Z,23.23
2019-04-16T11:28:18.954Z,23.08
2019-04-16T11:29:28.962Z,23.21
2019-04-16T11:30:38.705Z,23.11
2019-04-16T11:31:48.765Z,23.23
2019-04-16T11:32:58.771Z,23.36
2019-04-16T11:34:08.982Z,23.29
2019-04-16T11:35:25.530Z,23.32
2019-04-16T11:36:36.335Z,23.54
2019-04-16T11:37:49.506Z,23.79
2019-04-16T11:38:59.575Z,23.7
2019-04-16T11:40:09.666Z,23.64
2019-04-16T11:41:19.573Z,22.88
2019-04-16T11:42:29.639Z,22.8
2019-04-16T11:43:39.492Z,22.98
2019-04-16T11:44:52.824Z,22.84
2019-04-16T11:46:02.754Z,22.98
2019-04-16T11:47:13.132Z,23.4
2019-04-16T11:48:23.270Z,23.59
2019-04-16T11:49:33.273Z,23.11
2019-04-16T11:50:43.284Z,23.32
2019-04-16T11:51:53.186Z,23.42
2019-04-16T11:53:03.547Z,23.28
2019-04-16T11:54:16.521Z,23.37
2019-04-16T11:55:26.493Z,23.48
2019-04-16T11:56:36.283Z,23.69
2019-04-16T11:57:46.106Z,23.69
2019-04-16T11:58:59.542Z,23.91
2019-04-16T12:00:12.641Z,23.76
2019-04-16T12:01:25.570Z,23.74
2019-04-16T12:02:38.677Z,23.74
2019-04-16T12:03:48.882Z,23.99
2019-04-16T12:05:04.194Z,24.26
2019-04-16T12:06:29.491Z,24.66
2019-04-16T12:07:39.629Z,25.01
2019-04-16T12:08:52.150Z,24.65
2019-04-16T12:10:02.480Z,24.47
2019-04-16T12:11:12.392Z,23.77
2019-04-16T12:12:22.398Z,23.55
2019-04-16T12:13:32.506Z,23.58
2019-04-16T12:14:47.185Z,24
2019-04-16T12:15:57.362Z,24.18
2019-04-16T12:17:07.372Z,24.31
2019-04-16T12:18:17.582Z,24.25
2019-04-16T12:19:27.730Z,24.46
2019-04-16T12:20:37.923Z,24.55
2019-04-16T12:21:48.016Z,24.5
2019-04-16T12:22:58.034Z,24.59
2019-04-16T12:24:08.346Z,24.5
2019-04-16T12:25:18.578Z,24.34
2019-04-16T12:26:28.101Z,24.16
2019-04-16T12:27:38.174Z,23.58
2019-04-16T12:28:48.381Z,23.59
2019-04-16T12:29:58.517Z,23.81
2019-04-16T12:31:08.691Z,23.84
2019-04-16T12:32:22.167Z,24
2019-04-16T12:33:34.712Z,24.07
2019-04-16T12:34:44.760Z,24.22
2019-04-16T12:35:56.700Z,24.47
2019-04-16T12:37:07.028Z,24.38
2019-04-16T12:38:22.329Z,24.43
2019-04-16T12:39:35.542Z,24.65
2019-04-16T12:40:47.289Z,24.66
2019-04-16T12:41:59.991Z,24.46
2019-04-16T12:43:14.641Z,24.68
2019-04-16T12:44:44.080Z,24.68
2019-04-16T12:45:58.234Z,24.71
2019-04-16T12:47:08.229Z,24.84
2019-04-16T12:48:18.119Z,24.93
2019-04-16T12:49:28.011Z,25.15
2019-04-16T12:50:37.911Z,25.26
2019-04-16T12:51:47.807Z,24.88
2019-04-16T12:53:00.313Z,24.56
2019-04-16T12:54:10.434Z,24.14
2019-04-16T12:55:23.577Z,24.32
2019-04-16T12:56:45.008Z,24.47
2019-04-16T12:57:58.596Z,24.51
2019-04-16T12:59:09.146Z,24.58
2019-04-16T13:00:19.118Z,24.16
2019-04-16T13:01:39.351Z,24.41
2019-04-16T13:02:49.807Z,24.71
2019-04-16T13:03:59.807Z,24.65
2019-04-16T13:05:09.787Z,24.75
2019-04-16T13:06:19.733Z,24.82
2019-04-16T13:07:33.693Z,24.89
2019-04-16T13:08:46.725Z,25.15
2019-04-16T13:09:58.584Z,25.09
2019-04-16T13:11:11.314Z,25.06
2019-04-16T13:12:21.274Z,25.06
2019-04-16T13:13:31.243Z,25.01
2019-04-16T13:14:42.738Z,25.06
2019-04-16T13:16:07.882Z,25.21
2019-04-16T13:17:22.971Z,25.31
2019-04-16T13:18:32.949Z,25.54
2019-04-16T13:19:42.895Z,25.48
2019-04-16T13:20:52.850Z,25.39
2019-04-16T13:22:08.979Z,25.26
2019-04-16T13:23:18.952Z,24.99
2019-04-16T13:24:28.922Z,25
2019-04-16T13:25:38.147Z,25.04
2019-04-16T13:26:48.153Z,25.07
2019-04-16T13:27:58.115Z,24.94
2019-04-16T13:29:07.867Z,24.88
2019-04-16T13:30:17.591Z,25
2019-04-16T13:31:27.293Z,24.96
2019-04-16T13:32:37.261Z,25.06
2019-04-16T13:33:50.888Z,24.99
2019-04-16T13:35:02.970Z,25
2019-04-16T13:36:12.688Z,25.01
2019-04-16T13:37:22.663Z,25.16
2019-04-16T13:38:42.420Z,25
2019-04-16T13:39:52.122Z,24.69
2019-04-16T13:41:07.096Z,24.65
2019-04-16T13:42:17.057Z,24.51
2019-04-16T13:43:27.029Z,24.66
2019-04-16T13:44:43.621Z,24.79
2019-04-16T13:45:57.842Z,25.15
2019-04-16T13:47:08.799Z,25.03
2019-04-16T13:48:27.199Z,24.99
2019-04-16T13:49:37.434Z,25.03
2019-04-16T13:50:47.481Z,24.96
2019-04-16T13:51:59.925Z,24.71
2019-04-16T13:53:10.265Z,24.4
2019-04-16T13:54:20.229Z,24.46
2019-04-16T13:55:33.197Z,24.47
2019-04-16T13:56:52.853Z,24.89
2019-04-16T13:58:02.563Z,25.07
2019-04-16T13:59:12.623Z,24.93
2019-04-16T14:00:22.333Z,24.81
2019-04-16T14:01:31.805Z,24.85
2019-04-16T14:02:53.029Z,24.77
2019-04-16T14:04:02.727Z,24.66
2019-04-16T14:05:15.752Z,24.53
2019-04-16T14:06:25.758Z,24.44
2019-04-16T14:07:35.733Z,23.95
2019-04-16T14:08:45.201Z,23.73
2019-04-16T14:09:54.922Z,23.58
2019-04-16T14:11:04.641Z,23.67
2019-04-16T14:12:14.873Z,23.76
2019-04-16T14:13:29.570Z,23.71
2019-04-16T14:14:39.545Z,23.76
2019-04-16T14:15:51.997Z,23.91
2019-04-16T14:17:15.211Z,23.91
2019-04-16T14:18:29.451Z,23.89
2019-04-16T14:19:42.721Z,24.01
2019-04-16T14:20:51.677Z,24.13
2019-04-16T14:22:01.636Z,24.18
2019-04-16T14:23:11.756Z,24.09
2019-04-16T14:24:21.715Z,24.22
2019-04-16T14:25:31.518Z,23.89
2019-04-16T14:26:40.749Z,23.85
2019-04-16T14:27:50.728Z,23.66
2019-04-16T14:29:11.323Z,23.7
2019-04-16T14:30:21.041Z,23.54
2019-04-16T14:31:30.794Z,23.69
2019-04-16T14:32:40.505Z,23.71
2019-04-16T14:33:50.482Z,23.7
2019-04-16T14:35:00.804Z,23.84
2019-04-16T14:36:11.111Z,23.89
2019-04-16T14:37:20.809Z,23.95
2019-04-16T14:38:30.788Z,24.04
2019-04-16T14:39:40.763Z,24.24
2019-04-16T14:40:50.245Z,24.22
2019-04-16T14:41:59.974Z,24.21
2019-04-16T14:43:09.946Z,24.16
2019-04-16T14:44:19.897Z,24.01
2019-04-16T14:45:33.147Z,24.04
2019-04-16T14:47:06.559Z,24.04
2019-04-16T14:48:16.531Z,24
2019-04-16T14:49:26.515Z,23.91
2019-04-16T14:50:38.061Z,23.81
2019-04-16T14:51:47.775Z,23.73
2019-04-16T14:52:57.631Z,23.73
2019-04-16T14:54:07.615Z,23.59
2019-04-16T14:55:17.580Z,23.67
2019-04-16T14:56:27.314Z,23.66
2019-04-16T14:57:39.759Z,23.64
2019-04-16T14:58:50.737Z,23.42
2019-04-16T15:00:00.197Z,23.56
2019-04-16T15:01:10.170Z,23.47
2019-04-16T15:02:19.891Z,23.48
2019-04-16T15:03:29.602Z,23.47
2019-04-16T15:04:40.059Z,23.52
2019-04-16T15:05:52.973Z,23.55
2019-04-16T15:07:02.701Z,23.52
2019-04-16T15:08:12.806Z,23.59
2019-04-16T15:09:22.517Z,23.69
2019-04-16T15:10:32.486Z,23.51
2019-04-16T15:11:42.465Z,23.16
2019-04-16T15:12:52.191Z,23.02
2019-04-16T15:14:01.979Z,23.11
2019-04-16T15:15:16.008Z,23.26
2019-04-16T15:16:27.175Z,23.08
2019-04-16T15:17:36.875Z,23.02
2019-04-16T15:18:46.586Z,22.98
2019-04-16T15:19:56.548Z,23.01
2019-04-16T15:21:13.112Z,22.91
2019-04-16T15:22:22.585Z,22.89
2019-04-16T15:23:32.563Z,23.01
2019-04-16T15:24:42.380Z,22.8
2019-04-16T15:25:52.361Z,22.67
2019-04-16T15:27:02.706Z,22.52
2019-04-16T15:28:12.229Z,22.68
2019-04-16T15:29:25.409Z,22.77
2019-04-16T15:30:35.400Z,22.59
2019-04-16T15:31:45.364Z,22.38
2019-04-16T15:32:55.113Z,22.52
2019-04-16T15:34:15.636Z,22.59
2019-04-16T15:35:25.628Z,22.49
2019-04-16T15:36:35.335Z,22.38
2019-04-16T15:37:47.621Z,22.46
2019-04-16T15:39:02.614Z,22.47
2019-04-16T15:40:13.558Z,22.38
2019-04-16T15:41:23.533Z,22.31
2019-04-16T15:42:33.507Z,22.19
2019-04-16T15:43:43.226Z,22.28
2019-04-16T15:45:00.406Z,22.25
2019-04-16T15:46:30.600Z,22.16